sensor_id;sensor_type;location;lat;lon;timestamp;pressure;altitude;pressure_sealevel;temperature
67822;BMP180;54434;50.096;20.082;2024-02-16T00:01:54;99392.40;;;1.90
67822;BMP180;54434;50.096;20.082;2024-02-16T00:04:48;99390.60;;;1.80
67822;BMP180;54434;50.096;20.082;2024-02-16T00:07:42;99392.60;;;1.80
67822;BMP180;54434;50.096;20.082;2024-02-16T00:10:38;99399.20;;;1.80
67822;BMP180;54434;50.096;20.082;2024-02-16T00:13:32;99403.00;;;1.80
67822;BMP180;54434;50.096;20.082;2024-02-16T00:16:26;99401.20;;;1.76
67822;BMP180;54434;50.096;20.082;2024-02-16T00:19:19;99403.80;;;1.80
67822;BMP180;54434;50.096;20.082;2024-02-16T00:22:15;99398.60;;;1.76
67822;BMP180;54434;50.096;20.082;2024-02-16T00:25:10;99400.40;;;1.70
67822;BMP180;54434;50.096;20.082;2024-02-16T00:28:06;99395.40;;;1.70
67822;BMP180;54434;50.096;20.082;2024-02-16T00:30:59;99392.00;;;1.70
67822;BMP180;54434;50.096;20.082;2024-02-16T00:33:52;99394.60;;;1.70
67822;BMP180;54434;50.096;20.082;2024-02-16T00:36:46;99393.60;;;1.66
67822;BMP180;54434;50.096;20.082;2024-02-16T00:39:40;99396.00;;;1.60
67822;BMP180;54434;50.096;20.082;2024-02-16T00:42:34;99392.20;;;1.60
67822;BMP180;54434;50.096;20.082;2024-02-16T00:45:28;99393.20;;;1.60
67822;BMP180;54434;50.096;20.082;2024-02-16T00:48:22;99393.40;;;1.60
67822;BMP180;54434;50.096;20.082;2024-02-16T00:51:17;99393.80;;;1.60
67822;BMP180;54434;50.096;20.082;2024-02-16T00:54:11;99388.60;;;1.54
67822;BMP180;54434;50.096;20.082;2024-02-16T00:57:05;99392.60;;;1.50
67822;BMP180;54434;50.096;20.082;2024-02-16T00:59:59;99389.60;;;1.50
67822;BMP180;54434;50.096;20.082;2024-02-16T01:02:53;99383.00;;;1.50
67822;BMP180;54434;50.096;20.082;2024-02-16T01:05:47;99379.40;;;1.50
67822;BMP180;54434;50.096;20.082;2024-02-16T01:08:41;99372.60;;;1.50
67822;BMP180;54434;50.096;20.082;2024-02-16T01:11:35;99372.40;;;1.50
67822;BMP180;54434;50.096;20.082;2024-02-16T01:14:28;99371.80;;;1.50
67822;BMP180;54434;50.096;20.082;2024-02-16T01:17:22;99370.00;;;1.50
67822;BMP180;54434;50.096;20.082;2024-02-16T01:20:16;99367.40;;;1.50
67822;BMP180;54434;50.096;20.082;2024-02-16T01:23:10;99366.80;;;1.40
67822;BMP180;54434;50.096;20.082;2024-02-16T01:26:04;99369.40;;;1.40
67822;BMP180;54434;50.096;20.082;2024-02-16T01:28:58;99365.60;;;1.40
67822;BMP180;54434;50.096;20.082;2024-02-16T01:31:51;99363.80;;;1.40
67822;BMP180;54434;50.096;20.082;2024-02-16T01:34:45;99364.60;;;1.34
67822;BMP180;54434;50.096;20.082;2024-02-16T01:37:42;99366.80;;;1.36
67822;BMP180;54434;50.096;20.082;2024-02-16T01:40:35;99364.40;;;1.30
67822;BMP180;54434;50.096;20.082;2024-02-16T01:43:30;99363.80;;;1.30
67822;BMP180;54434;50.096;20.082;2024-02-16T01:46:24;99359.60;;;1.30
67822;BMP180;54434;50.096;20.082;2024-02-16T01:49:18;99356.20;;;1.30
67822;BMP180;54434;50.096;20.082;2024-02-16T01:52:13;99357.80;;;1.30
67822;BMP180;54434;50.096;20.082;2024-02-16T01:55:08;99357.40;;;1.30
67822;BMP180;54434;50.096;20.082;2024-02-16T01:58:03;99354.40;;;1.30
67822;BMP180;54434;50.096;20.082;2024-02-16T02:00:57;99353.20;;;1.24
67822;BMP180;54434;50.096;20.082;2024-02-16T02:03:51;99355.00;;;1.24
67822;BMP180;54434;50.096;20.082;2024-02-16T02:06:44;99352.60;;;1.20
67822;BMP180;54434;50.096;20.082;2024-02-16T02:09:38;99353.40;;;1.20
67822;BMP180;54434;50.096;20.082;2024-02-16T02:12:32;99352.40;;;1.20
67822;BMP180;54434;50.096;20.082;2024-02-16T02:15:26;99355.40;;;1.10
67822;BMP180;54434;50.096;20.082;2024-02-16T02:18:20;99354.40;;;1.10
67822;BMP180;54434;50.096;20.082;2024-02-16T02:21:14;99352.40;;;1.08
67822;BMP180;54434;50.096;20.082;2024-02-16T02:24:10;99353.80;;;1.00
67822;BMP180;54434;50.096;20.082;2024-02-16T02:27:04;99353.00;;;1.00
67822;BMP180;54434;50.096;20.082;2024-02-16T02:29:58;99352.80;;;1.00
67822;BMP180;54434;50.096;20.082;2024-02-16T02:32:53;99345.40;;;1.00
67822;BMP180;54434;50.096;20.082;2024-02-16T02:35:47;99340.40;;;0.90
67822;BMP180;54434;50.096;20.082;2024-02-16T02:38:41;99338.60;;;0.90
67822;BMP180;54434;50.096;20.082;2024-02-16T02:41:37;99338.20;;;0.80
67822;BMP180;54434;50.096;20.082;2024-02-16T02:44:31;99338.20;;;0.80
67822;BMP180;54434;50.096;20.082;2024-02-16T02:47:25;99339.60;;;0.78
67822;BMP180;54434;50.096;20.082;2024-02-16T02:50:19;99342.20;;;0.70
67822;BMP180;54434;50.096;20.082;2024-02-16T02:53:13;99347.60;;;0.62
67822;BMP180;54434;50.096;20.082;2024-02-16T02:56:08;99352.60;;;0.60
67822;BMP180;54434;50.096;20.082;2024-02-16T02:59:01;99348.40;;;0.60
67822;BMP180;54434;50.096;20.082;2024-02-16T03:01:56;99349.80;;;0.60
67822;BMP180;54434;50.096;20.082;2024-02-16T03:04:50;99354.80;;;0.60
67822;BMP180;54434;50.096;20.082;2024-02-16T03:07:44;99354.00;;;0.60
67822;BMP180;54434;50.096;20.082;2024-02-16T03:10:38;99355.00;;;0.60
67822;BMP180;54434;50.096;20.082;2024-02-16T03:13:32;99354.20;;;0.58
67822;BMP180;54434;50.096;20.082;2024-02-16T03:16:26;99355.40;;;0.50
67822;BMP180;54434;50.096;20.082;2024-02-16T03:19:21;99359.60;;;0.50
67822;BMP180;54434;50.096;20.082;2024-02-16T03:22:15;99355.00;;;0.50
67822;BMP180;54434;50.096;20.082;2024-02-16T03:25:10;99359.00;;;0.50
67822;BMP180;54434;50.096;20.082;2024-02-16T03:28:04;99361.80;;;0.50
67822;BMP180;54434;50.096;20.082;2024-02-16T03:30:58;99360.20;;;0.50
67822;BMP180;54434;50.096;20.082;2024-02-16T03:33:52;99358.40;;;0.50
67822;BMP180;54434;50.096;20.082;2024-02-16T03:36:47;99354.80;;;0.42
67822;BMP180;54434;50.096;20.082;2024-02-16T03:39:40;99353.60;;;0.40
67822;BMP180;54434;50.096;20.082;2024-02-16T03:42:35;99355.60;;;0.40
67822;BMP180;54434;50.096;20.082;2024-02-16T03:45:28;99357.20;;;0.40
67822;BMP180;54434;50.096;20.082;2024-02-16T03:48:22;99353.60;;;0.40
67822;BMP180;54434;50.096;20.082;2024-02-16T03:51:16;99353.60;;;0.40
67822;BMP180;54434;50.096;20.082;2024-02-16T03:54:10;99356.40;;;0.36
67822;BMP180;54434;50.096;20.082;2024-02-16T03:57:04;99356.40;;;0.38
67822;BMP180;54434;50.096;20.082;2024-02-16T04:00:01;99348.80;;;0.30
67822;BMP180;54434;50.096;20.082;2024-02-16T04:03:03;99353.60;;;0.30
67822;BMP180;54434;50.096;20.082;2024-02-16T04:05:57;99353.00;;;0.30
67822;BMP180;54434;50.096;20.082;2024-02-16T04:08:52;99348.20;;;0.30
67822;BMP180;54434;50.096;20.082;2024-02-16T04:11:48;99345.20;;;0.30
67822;BMP180;54434;50.096;20.082;2024-02-16T04:14:43;99345.60;;;0.30
67822;BMP180;54434;50.096;20.082;2024-02-16T04:17:37;99339.80;;;0.26
67822;BMP180;54434;50.096;20.082;2024-02-16T04:20:32;99338.00;;;0.20
67822;BMP180;54434;50.096;20.082;2024-02-16T04:23:25;99337.60;;;0.24
67822;BMP180;54434;50.096;20.082;2024-02-16T04:26:19;99337.60;;;0.20
67822;BMP180;54434;50.096;20.082;2024-02-16T04:29:13;99338.00;;;0.20
67822;BMP180;54434;50.096;20.082;2024-02-16T04:32:08;99335.80;;;0.20
67822;BMP180;54434;50.096;20.082;2024-02-16T04:35:02;99335.40;;;0.20
67822;BMP180;54434;50.096;20.082;2024-02-16T04:37:56;99344.20;;;0.26
67822;BMP180;54434;50.096;20.082;2024-02-16T04:40:51;99349.20;;;0.28
67822;BMP180;54434;50.096;20.082;2024-02-16T04:43:44;99351.00;;;0.30
67822;BMP180;54434;50.096;20.082;2024-02-16T04:46:38;99350.40;;;0.30
67822;BMP180;54434;50.096;20.082;2024-02-16T04:49:32;99350.40;;;0.30
67822;BMP180;54434;50.096;20.082;2024-02-16T04:52:26;99348.20;;;0.32
67822;BMP180;54434;50.096;20.082;2024-02-16T04:55:22;99350.60;;;0.34
67822;BMP180;54434;50.096;20.082;2024-02-16T04:58:16;99355.60;;;0.32
67822;BMP180;54434;50.096;20.082;2024-02-16T05:01:09;99352.00;;;0.40
67822;BMP180;54434;50.096;20.082;2024-02-16T05:04:04;99348.00;;;0.40
67822;BMP180;54434;50.096;20.082;2024-02-16T05:06:59;99347.20;;;0.30
67822;BMP180;54434;50.096;20.082;2024-02-16T05:09:53;99350.00;;;0.30
67822;BMP180;54434;50.096;20.082;2024-02-16T05:12:51;99349.40;;;0.30
67822;BMP180;54434;50.096;20.082;2024-02-16T05:15:44;99344.60;;;0.30
67822;BMP180;54434;50.096;20.082;2024-02-16T05:18:40;99342.40;;;0.30
67822;BMP180;54434;50.096;20.082;2024-02-16T05:21:33;99343.00;;;0.30
67822;BMP180;54434;50.096;20.082;2024-02-16T05:24:27;99345.20;;;0.30
67822;BMP180;54434;50.096;20.082;2024-02-16T05:27:21;99341.00;;;0.30
67822;BMP180;54434;50.096;20.082;2024-02-16T05:30:15;99345.40;;;0.30
67822;BMP180;54434;50.096;20.082;2024-02-16T05:33:09;99346.00;;;0.30
67822;BMP180;54434;50.096;20.082;2024-02-16T05:36:03;99350.80;;;0.30
67822;BMP180;54434;50.096;20.082;2024-02-16T05:38:57;99347.40;;;0.20
67822;BMP180;54434;50.096;20.082;2024-02-16T05:42:02;99353.40;;;0.20
67822;BMP180;54434;50.096;20.082;2024-02-16T05:44:56;99353.80;;;0.20
67822;BMP180;54434;50.096;20.082;2024-02-16T05:47:50;99359.40;;;0.20
67822;BMP180;54434;50.096;20.082;2024-02-16T05:50:46;99357.80;;;0.22
67822;BMP180;54434;50.096;20.082;2024-02-16T05:53:40;99358.80;;;0.30
67822;BMP180;54434;50.096;20.082;2024-02-16T05:56:33;99365.40;;;0.30
67822;BMP180;54434;50.096;20.082;2024-02-16T05:59:29;99364.20;;;0.30
67822;BMP180;54434;50.096;20.082;2024-02-16T06:02:23;99361.60;;;0.30
67822;BMP180;54434;50.096;20.082;2024-02-16T06:05:18;99365.40;;;0.40
67822;BMP180;54434;50.096;20.082;2024-02-16T06:08:13;99364.60;;;0.40
67822;BMP180;54434;50.096;20.082;2024-02-16T06:11:11;99363.00;;;0.50
67822;BMP180;54434;50.096;20.082;2024-02-16T06:14:05;99371.40;;;0.50
67822;BMP180;54434;50.096;20.082;2024-02-16T06:16:58;99368.40;;;0.54
67822;BMP180;54434;50.096;20.082;2024-02-16T06:19:52;99374.20;;;0.60
67822;BMP180;54434;50.096;20.082;2024-02-16T06:22:46;99375.60;;;0.64
67822;BMP180;54434;50.096;20.082;2024-02-16T06:25:40;99383.60;;;0.70
67822;BMP180;54434;50.096;20.082;2024-02-16T06:28:34;99385.40;;;0.80
67822;BMP180;54434;50.096;20.082;2024-02-16T06:31:28;99384.00;;;0.82
67822;BMP180;54434;50.096;20.082;2024-02-16T06:34:22;99382.80;;;0.90
67822;BMP180;54434;50.096;20.082;2024-02-16T06:37:16;99377.40;;;1.00
67822;BMP180;54434;50.096;20.082;2024-02-16T06:40:11;99373.60;;;1.10
67822;BMP180;54434;50.096;20.082;2024-02-16T06:43:05;99375.60;;;1.22
67822;BMP180;54434;50.096;20.082;2024-02-16T06:45:59;99380.20;;;1.36
67822;BMP180;54434;50.096;20.082;2024-02-16T06:48:52;99381.40;;;1.50
67822;BMP180;54434;50.096;20.082;2024-02-16T06:51:49;99385.60;;;1.60
67822;BMP180;54434;50.096;20.082;2024-02-16T06:54:42;99377.00;;;1.80
67822;BMP180;54434;50.096;20.082;2024-02-16T06:57:36;99382.60;;;1.90
67822;BMP180;54434;50.096;20.082;2024-02-16T07:00:29;99379.80;;;2.10
67822;BMP180;54434;50.096;20.082;2024-02-16T07:03:24;99380.20;;;2.30
67822;BMP180;54434;50.096;20.082;2024-02-16T07:06:17;99376.40;;;2.44
67822;BMP180;54434;50.096;20.082;2024-02-16T07:09:11;99373.60;;;2.60
67822;BMP180;54434;50.096;20.082;2024-02-16T07:12:08;99376.00;;;2.80
67822;BMP180;54434;50.096;20.082;2024-02-16T07:15:06;99379.20;;;3.00
67822;BMP180;54434;50.096;20.082;2024-02-16T07:18:01;99381.20;;;3.18
67822;BMP180;54434;50.096;20.082;2024-02-16T07:20:56;99377.80;;;3.30
67822;BMP180;54434;50.096;20.082;2024-02-16T07:23:51;99384.20;;;3.50
67822;BMP180;54434;50.096;20.082;2024-02-16T07:26:45;99380.00;;;3.70
67822;BMP180;54434;50.096;20.082;2024-02-16T07:29:39;99384.80;;;3.90
67822;BMP180;54434;50.096;20.082;2024-02-16T07:32:33;99381.20;;;4.20
67822;BMP180;54434;50.096;20.082;2024-02-16T07:35:26;99385.40;;;4.58
67822;BMP180;54434;50.096;20.082;2024-02-16T07:38:21;99382.00;;;4.90
67822;BMP180;54434;50.096;20.082;2024-02-16T07:41:15;99385.40;;;5.20
67822;BMP180;54434;50.096;20.082;2024-02-16T07:44:09;99388.20;;;5.60
67822;BMP180;54434;50.096;20.082;2024-02-16T07:47:03;99389.00;;;6.04
67822;BMP180;54434;50.096;20.082;2024-02-16T07:49:57;99388.60;;;6.46
67822;BMP180;54434;50.096;20.082;2024-02-16T07:52:51;99384.80;;;6.80
67822;BMP180;54434;50.096;20.082;2024-02-16T07:55:46;99394.40;;;7.10
67822;BMP180;54434;50.096;20.082;2024-02-16T07:58:40;99390.00;;;7.40
67822;BMP180;54434;50.096;20.082;2024-02-16T08:01:34;99386.40;;;7.70
67822;BMP180;54434;50.096;20.082;2024-02-16T08:04:27;99386.60;;;8.02
67822;BMP180;54434;50.096;20.082;2024-02-16T08:07:21;99386.20;;;8.30
67822;BMP180;54434;50.096;20.082;2024-02-16T08:10:18;99391.20;;;8.30
67822;BMP180;54434;50.096;20.082;2024-02-16T08:13:12;99392.40;;;8.40
67822;BMP180;54434;50.096;20.082;2024-02-16T08:16:07;99390.40;;;8.60
67822;BMP180;54434;50.096;20.082;2024-02-16T08:19:01;99389.20;;;8.80
67822;BMP180;54434;50.096;20.082;2024-02-16T08:21:54;99391.80;;;9.00
67822;BMP180;54434;50.096;20.082;2024-02-16T08:24:48;99389.40;;;9.10
67822;BMP180;54434;50.096;20.082;2024-02-16T08:27:42;99389.60;;;9.30
67822;BMP180;54434;50.096;20.082;2024-02-16T08:30:35;99398.20;;;9.50
67822;BMP180;54434;50.096;20.082;2024-02-16T08:33:33;99397.60;;;9.58
67822;BMP180;54434;50.096;20.082;2024-02-16T08:36:29;99392.00;;;9.50
67822;BMP180;54434;50.096;20.082;2024-02-16T08:39:23;99394.40;;;9.50
67822;BMP180;54434;50.096;20.082;2024-02-16T08:42:17;99395.60;;;9.46
67822;BMP180;54434;50.096;20.082;2024-02-16T08:45:11;99398.60;;;9.40
67822;BMP180;54434;50.096;20.082;2024-02-16T08:48:06;99402.20;;;9.40
67822;BMP180;54434;50.096;20.082;2024-02-16T08:51:00;99397.60;;;9.60
67822;BMP180;54434;50.096;20.082;2024-02-16T08:53:54;99401.80;;;9.64
67822;BMP180;54434;50.096;20.082;2024-02-16T08:56:49;99402.80;;;9.80
67822;BMP180;54434;50.096;20.082;2024-02-16T08:59:43;99396.40;;;9.90
67822;BMP180;54434;50.096;20.082;2024-02-16T09:02:37;99396.80;;;10.10
67822;BMP180;54434;50.096;20.082;2024-02-16T09:05:31;99397.60;;;10.20
67822;BMP180;54434;50.096;20.082;2024-02-16T09:08:25;99393.60;;;10.36
67822;BMP180;54434;50.096;20.082;2024-02-16T09:11:21;99392.20;;;10.40
67822;BMP180;54434;50.096;20.082;2024-02-16T09:14:15;99392.00;;;10.38
67822;BMP180;54434;50.096;20.082;2024-02-16T09:17:08;99395.20;;;10.30
67822;BMP180;54434;50.096;20.082;2024-02-16T09:20:03;99396.80;;;10.40
67822;BMP180;54434;50.096;20.082;2024-02-16T09:23:00;99394.20;;;10.40
67822;BMP180;54434;50.096;20.082;2024-02-16T09:25:55;99400.40;;;10.40
67822;BMP180;54434;50.096;20.082;2024-02-16T09:28:49;99397.60;;;10.50
67822;BMP180;54434;50.096;20.082;2024-02-16T09:31:43;99396.00;;;10.60
67822;BMP180;54434;50.096;20.082;2024-02-16T09:34:36;99394.20;;;10.70
67822;BMP180;54434;50.096;20.082;2024-02-16T09:37:34;99398.20;;;10.70
67822;BMP180;54434;50.096;20.082;2024-02-16T09:40:28;99400.60;;;10.62
67822;BMP180;54434;50.096;20.082;2024-02-16T09:43:29;99401.20;;;10.70
67822;BMP180;54434;50.096;20.082;2024-02-16T09:46:24;99398.80;;;10.70
67822;BMP180;54434;50.096;20.082;2024-02-16T09:49:19;99396.60;;;10.70
67822;BMP180;54434;50.096;20.082;2024-02-16T09:52:26;99399.40;;;10.70
67822;BMP180;54434;50.096;20.082;2024-02-16T09:55:20;99398.80;;;10.70
67822;BMP180;54434;50.096;20.082;2024-02-16T09:58:14;99397.00;;;10.70
67822;BMP180;54434;50.096;20.082;2024-02-16T10:01:19;99398.00;;;10.70
67822;BMP180;54434;50.096;20.082;2024-02-16T10:04:13;99403.60;;;10.70
67822;BMP180;54434;50.096;20.082;2024-02-16T10:07:07;99400.40;;;10.74
67822;BMP180;54434;50.096;20.082;2024-02-16T10:10:05;99399.40;;;10.80
67822;BMP180;54434;50.096;20.082;2024-02-16T10:13:08;99397.80;;;10.74
67822;BMP180;54434;50.096;20.082;2024-02-16T10:16:11;99393.40;;;10.80
67822;BMP180;54434;50.096;20.082;2024-02-16T10:19:09;99387.60;;;10.80
67822;BMP180;54434;50.096;20.082;2024-02-16T10:22:11;99389.20;;;10.82
67822;BMP180;54434;50.096;20.082;2024-02-16T10:25:12;99386.80;;;10.80
67822;BMP180;54434;50.096;20.082;2024-02-16T10:28:09;99384.80;;;10.90
67822;BMP180;54434;50.096;20.082;2024-02-16T10:31:03;99380.60;;;10.90
67822;BMP180;54434;50.096;20.082;2024-02-16T10:34:00;99379.20;;;11.00
67822;BMP180;54434;50.096;20.082;2024-02-16T10:37:00;99371.60;;;11.08
67822;BMP180;54434;50.096;20.082;2024-02-16T10:39:55;99369.60;;;11.10
67822;BMP180;54434;50.096;20.082;2024-02-16T10:42:52;99372.20;;;11.12
67822;BMP180;54434;50.096;20.082;2024-02-16T10:45:47;99370.00;;;11.20
67822;BMP180;54434;50.096;20.082;2024-02-16T10:48:44;99364.60;;;11.30
67822;BMP180;54434;50.096;20.082;2024-02-16T10:51:44;99360.20;;;11.30
67822;BMP180;54434;50.096;20.082;2024-02-16T10:54:40;99358.60;;;11.40
67822;BMP180;54434;50.096;20.082;2024-02-16T10:57:36;99364.40;;;11.50
67822;BMP180;54434;50.096;20.082;2024-02-16T11:00:31;99356.60;;;11.60
67822;BMP180;54434;50.096;20.082;2024-02-16T11:03:28;99352.80;;;11.68
67822;BMP180;54434;50.096;20.082;2024-02-16T11:06:23;99349.20;;;11.70
67822;BMP180;54434;50.096;20.082;2024-02-16T11:09:29;99345.60;;;11.80
67822;BMP180;54434;50.096;20.082;2024-02-16T11:12:24;99342.80;;;11.90
67822;BMP180;54434;50.096;20.082;2024-02-16T11:15:17;99341.00;;;12.00
67822;BMP180;54434;50.096;20.082;2024-02-16T11:18:20;99341.00;;;12.00
67822;BMP180;54434;50.096;20.082;2024-02-16T11:21:17;99338.20;;;12.10
67822;BMP180;54434;50.096;20.082;2024-02-16T11:24:14;99330.80;;;12.10
67822;BMP180;54434;50.096;20.082;2024-02-16T11:27:09;99327.00;;;12.20
67822;BMP180;54434;50.096;20.082;2024-02-16T11:30:06;99314.40;;;12.20
67822;BMP180;54434;50.096;20.082;2024-02-16T11:32:59;99320.60;;;12.30
67822;BMP180;54434;50.096;20.082;2024-02-16T11:35:59;99312.20;;;12.30
67822;BMP180;54434;50.096;20.082;2024-02-16T11:38:53;99314.40;;;12.30
67822;BMP180;54434;50.096;20.082;2024-02-16T11:41:47;99318.00;;;12.40
67822;BMP180;54434;50.096;20.082;2024-02-16T11:44:49;99320.60;;;12.40
67822;BMP180;54434;50.096;20.082;2024-02-16T11:47:44;99315.40;;;12.50
67822;BMP180;54434;50.096;20.082;2024-02-16T11:50:38;99319.00;;;12.60
67822;BMP180;54434;50.096;20.082;2024-02-16T11:53:32;99315.80;;;12.60
67822;BMP180;54434;50.096;20.082;2024-02-16T11:56:27;99315.60;;;12.70
67822;BMP180;54434;50.096;20.082;2024-02-16T11:59:22;99304.60;;;12.70
67822;BMP180;54434;50.096;20.082;2024-02-16T12:02:23;99300.80;;;12.74
67822;BMP180;54434;50.096;20.082;2024-02-16T12:05:18;99305.20;;;12.80
67822;BMP180;54434;50.096;20.082;2024-02-16T12:08:11;99300.40;;;12.90
67822;BMP180;54434;50.096;20.082;2024-02-16T12:11:06;99301.00;;;12.90
67822;BMP180;54434;50.096;20.082;2024-02-16T12:14:00;99300.00;;;13.00
67822;BMP180;54434;50.096;20.082;2024-02-16T12:16:58;99302.20;;;13.00
67822;BMP180;54434;50.096;20.082;2024-02-16T12:19:53;99295.20;;;13.10
67822;BMP180;54434;50.096;20.082;2024-02-16T12:22:48;99291.80;;;13.10
67822;BMP180;54434;50.096;20.082;2024-02-16T12:25:41;99288.20;;;13.10
67822;BMP180;54434;50.096;20.082;2024-02-16T12:28:35;99289.20;;;13.10
67822;BMP180;54434;50.096;20.082;2024-02-16T12:31:31;99287.60;;;13.18
67822;BMP180;54434;50.096;20.082;2024-02-16T12:34:24;99288.60;;;13.20
67822;BMP180;54434;50.096;20.082;2024-02-16T12:37:19;99285.40;;;13.20
67822;BMP180;54434;50.096;20.082;2024-02-16T12:40:13;99281.00;;;13.22
67822;BMP180;54434;50.096;20.082;2024-02-16T12:43:07;99286.60;;;13.30
67822;BMP180;54434;50.096;20.082;2024-02-16T12:46:03;99284.20;;;13.30
67822;BMP180;54434;50.096;20.082;2024-02-16T12:48:57;99281.00;;;13.30
67822;BMP180;54434;50.096;20.082;2024-02-16T12:51:51;99280.60;;;13.30
67822;BMP180;54434;50.096;20.082;2024-02-16T12:54:44;99280.80;;;13.30
67822;BMP180;54434;50.096;20.082;2024-02-16T12:57:38;99277.60;;;13.30
67822;BMP180;54434;50.096;20.082;2024-02-16T13:00:32;99277.00;;;13.30
67822;BMP180;54434;50.096;20.082;2024-02-16T13:03:26;99276.20;;;13.40
67822;BMP180;54434;50.096;20.082;2024-02-16T13:06:20;99280.80;;;13.40
67822;BMP180;54434;50.096;20.082;2024-02-16T13:09:19;99282.20;;;13.40
67822;BMP180;54434;50.096;20.082;2024-02-16T13:12:13;99275.00;;;13.40
67822;BMP180;54434;50.096;20.082;2024-02-16T13:15:10;99272.20;;;13.40
67822;BMP180;54434;50.096;20.082;2024-02-16T13:18:19;99266.40;;;13.40
67822;BMP180;54434;50.096;20.082;2024-02-16T13:21:13;99269.00;;;13.40
67822;BMP180;54434;50.096;20.082;2024-02-16T13:24:12;99267.00;;;13.40
67822;BMP180;54434;50.096;20.082;2024-02-16T13:27:06;99263.00;;;13.40
67822;BMP180;54434;50.096;20.082;2024-02-16T13:30:01;99269.00;;;13.46
67822;BMP180;54434;50.096;20.082;2024-02-16T13:32:54;99261.80;;;13.50
67822;BMP180;54434;50.096;20.082;2024-02-16T13:35:48;99266.40;;;13.50
67822;BMP180;54434;50.096;20.082;2024-02-16T13:38:42;99264.80;;;13.50
67822;BMP180;54434;50.096;20.082;2024-02-16T13:41:36;99263.60;;;13.56
67822;BMP180;54434;50.096;20.082;2024-02-16T13:44:30;99259.80;;;13.60
67822;BMP180;54434;50.096;20.082;2024-02-16T13:47:25;99262.00;;;13.60
67822;BMP180;54434;50.096;20.082;2024-02-16T13:50:19;99259.00;;;13.60
67822;BMP180;54434;50.096;20.082;2024-02-16T13:53:12;99258.60;;;13.60
67822;BMP180;54434;50.096;20.082;2024-02-16T13:56:12;99253.20;;;13.60
67822;BMP180;54434;50.096;20.082;2024-02-16T13:59:06;99253.60;;;13.60
67822;BMP180;54434;50.096;20.082;2024-02-16T14:02:00;99253.60;;;13.60
67822;BMP180;54434;50.096;20.082;2024-02-16T14:04:54;99255.40;;;13.60
67822;BMP180;54434;50.096;20.082;2024-02-16T14:07:49;99252.80;;;13.60
67822;BMP180;54434;50.096;20.082;2024-02-16T14:10:52;99249.20;;;13.68
67822;BMP180;54434;50.096;20.082;2024-02-16T14:13:45;99249.00;;;13.70
67822;BMP180;54434;50.096;20.082;2024-02-16T14:16:39;99242.20;;;13.70
67822;BMP180;54434;50.096;20.082;2024-02-16T14:19:33;99246.00;;;13.70
67822;BMP180;54434;50.096;20.082;2024-02-16T14:22:30;99242.00;;;13.70
67822;BMP180;54434;50.096;20.082;2024-02-16T14:25:24;99244.20;;;13.70
67822;BMP180;54434;50.096;20.082;2024-02-16T14:28:17;99240.00;;;13.70
67822;BMP180;54434;50.096;20.082;2024-02-16T14:31:11;99238.00;;;13.70
67822;BMP180;54434;50.096;20.082;2024-02-16T14:34:07;99234.00;;;13.70
67822;BMP180;54434;50.096;20.082;2024-02-16T14:37:01;99233.20;;;13.70
67822;BMP180;54434;50.096;20.082;2024-02-16T14:39:57;99230.20;;;13.70
67822;BMP180;54434;50.096;20.082;2024-02-16T14:42:51;99230.00;;;13.60
67822;BMP180;54434;50.096;20.082;2024-02-16T14:45:44;99229.20;;;13.60
67822;BMP180;54434;50.096;20.082;2024-02-16T14:48:39;99231.40;;;13.50
67822;BMP180;54434;50.096;20.082;2024-02-16T14:51:32;99228.00;;;13.50
67822;BMP180;54434;50.096;20.082;2024-02-16T14:54:26;99226.80;;;13.40
67822;BMP180;54434;50.096;20.082;2024-02-16T14:57:21;99224.00;;;13.40
67822;BMP180;54434;50.096;20.082;2024-02-16T15:00:19;99223.60;;;13.30
67822;BMP180;54434;50.096;20.082;2024-02-16T15:03:12;99222.40;;;13.30
67822;BMP180;54434;50.096;20.082;2024-02-16T15:06:07;99217.60;;;13.20
67822;BMP180;54434;50.096;20.082;2024-02-16T15:09:00;99214.80;;;13.20
67822;BMP180;54434;50.096;20.082;2024-02-16T15:11:55;99213.00;;;13.10
67822;BMP180;54434;50.096;20.082;2024-02-16T15:14:49;99216.60;;;13.10
67822;BMP180;54434;50.096;20.082;2024-02-16T15:17:43;99217.20;;;13.00
67822;BMP180;54434;50.096;20.082;2024-02-16T15:20:37;99214.40;;;13.00
67822;BMP180;54434;50.096;20.082;2024-02-16T15:23:31;99215.20;;;13.00
67822;BMP180;54434;50.096;20.082;2024-02-16T15:26:25;99210.20;;;13.00
67822;BMP180;54434;50.096;20.082;2024-02-16T15:29:18;99214.20;;;12.90
67822;BMP180;54434;50.096;20.082;2024-02-16T15:32:12;99214.40;;;12.80
67822;BMP180;54434;50.096;20.082;2024-02-16T15:35:06;99206.60;;;12.72
67822;BMP180;54434;50.096;20.082;2024-02-16T15:38:00;99203.40;;;12.64
67822;BMP180;54434;50.096;20.082;2024-02-16T15:40:55;99202.20;;;12.60
67822;BMP180;54434;50.096;20.082;2024-02-16T15:43:48;99201.40;;;12.50
67822;BMP180;54434;50.096;20.082;2024-02-16T15:46:42;99205.20;;;12.40
67822;BMP180;54434;50.096;20.082;2024-02-16T15:49:36;99204.80;;;12.28
67822;BMP180;54434;50.096;20.082;2024-02-16T15:52:30;99203.20;;;12.20
67822;BMP180;54434;50.096;20.082;2024-02-16T15:55:24;99199.80;;;12.02
67822;BMP180;54434;50.096;20.082;2024-02-16T15:58:17;99199.00;;;11.90
67822;BMP180;54434;50.096;20.082;2024-02-16T16:01:11;99198.20;;;11.80
67822;BMP180;54434;50.096;20.082;2024-02-16T16:04:05;99202.60;;;11.70
67822;BMP180;54434;50.096;20.082;2024-02-16T16:06:59;99207.20;;;11.52
67822;BMP180;54434;50.096;20.082;2024-02-16T16:09:56;99203.00;;;11.40
67822;BMP180;54434;50.096;20.082;2024-02-16T16:12:49;99200.20;;;11.30
67822;BMP180;54434;50.096;20.082;2024-02-16T16:15:44;99201.40;;;11.14
67822;BMP180;54434;50.096;20.082;2024-02-16T16:18:38;99197.80;;;11.00
67822;BMP180;54434;50.096;20.082;2024-02-16T16:21:32;99201.60;;;10.90
67822;BMP180;54434;50.096;20.082;2024-02-16T16:24:26;99204.20;;;10.74
67822;BMP180;54434;50.096;20.082;2024-02-16T16:27:21;99206.80;;;10.60
67822;BMP180;54434;50.096;20.082;2024-02-16T16:30:17;99204.40;;;10.50
67822;BMP180;54434;50.096;20.082;2024-02-16T16:33:11;99196.80;;;10.38
67822;BMP180;54434;50.096;20.082;2024-02-16T16:36:07;99201.00;;;10.20
67822;BMP180;54434;50.096;20.082;2024-02-16T16:39:05;99200.60;;;10.10
67822;BMP180;54434;50.096;20.082;2024-02-16T16:42:00;99201.20;;;10.00